sensor_id;sensor_type;location;lat;lon;timestamp;temperature;humidity
12233;DHT22;6179;51.748;8.728;2022-10-20T00:01:24;8.00;98.30
12233;DHT22;6179;51.748;8.728;2022-10-20T00:07:25;7.90;98.30
12233;DHT22;6179;51.748;8.728;2022-10-20T00:13:26;8.00;98.30
12233;DHT22;6179;51.748;8.728;2022-10-20T00:19:27;8.00;98.30
12233;DHT22;6179;51.748;8.728;2022-10-20T00:25:28;8.00;98.30
12233;DHT22;6179;51.748;8.728;2022-10-20T00:31:28;7.90;98.30
12233;DHT22;6179;51.748;8.728;2022-10-20T00:37:29;7.80;98.30
12233;DHT22;6179;51.748;8.728;2022-10-20T00:43:53;7.90;98.30
12233;DHT22;6179;51.748;8.728;2022-10-20T00:49:55;7.70;98.30
12233;DHT22;6179;51.748;8.728;2022-10-20T00:56:00;8.10;98.30
12233;DHT22;6179;51.748;8.728;2022-10-20T01:02:01;8.00;98.30
12233;DHT22;6179;51.748;8.728;2022-10-20T01:08:03;8.30;98.30
12233;DHT22;6179;51.748;8.728;2022-10-20T01:20:43;7.90;98.30
12233;DHT22;6179;51.748;8.728;2022-10-20T01:39:47;7.80;98.30
12233;DHT22;6179;51.748;8.728;2022-10-20T01:45:50;8.00;98.30
12233;DHT22;6179;51.748;8.728;2022-10-20T01:51:53;8.00;98.30
12233;DHT22;6179;51.748;8.728;2022-10-20T02:04:14;7.90;98.30
12233;DHT22;6179;51.748;8.728;2022-10-20T02:10:23;7.60;98.30
12233;DHT22;6179;51.748;8.728;2022-10-20T02:16:29;7.80;98.30
12233;DHT22;6179;51.748;8.728;2022-10-20T02:22:32;7.80;98.30
12233;DHT22;6179;51.748;8.728;2022-10-20T02:28:35;7.70;98.30
12233;DHT22;6179;51.748;8.728;2022-10-20T02:34:37;7.80;98.30
12233;DHT22;6179;51.748;8.728;2022-10-20T02:40:37;7.80;98.30
12233;DHT22;6179;51.748;8.728;2022-10-20T02:46:38;7.60;98.30
12233;DHT22;6179;51.748;8.728;2022-10-20T02:52:39;7.80;98.30
12233;DHT22;6179;51.748;8.728;2022-10-20T02:58:40;7.60;98.30
12233;DHT22;6179;51.748;8.728;2022-10-20T03:04:40;7.60;98.30
12233;DHT22;6179;51.748;8.728;2022-10-20T03:10:41;7.70;98.30
12233;DHT22;6179;51.748;8.728;2022-10-20T03:16:42;7.70;98.30
12233;DHT22;6179;51.748;8.728;2022-10-20T03:22:43;7.70;98.30
12233;DHT22;6179;51.748;8.728;2022-10-20T03:28:43;7.50;98.30
12233;DHT22;6179;51.748;8.728;2022-10-20T03:34:44;7.90;98.30
12233;DHT22;6179;51.748;8.728;2022-10-20T03:40:45;7.70;98.30
12233;DHT22;6179;51.748;8.728;2022-10-20T03:46:45;7.80;98.30
12233;DHT22;6179;51.748;8.728;2022-10-20T03:52:47;7.70;98.30
12233;DHT22;6179;51.748;8.728;2022-10-20T03:58:48;7.80;98.30
12233;DHT22;6179;51.748;8.728;2022-10-20T04:04:49;7.80;98.30
12233;DHT22;6179;51.748;8.728;2022-10-20T04:10:49;7.80;98.30
12233;DHT22;6179;51.748;8.728;2022-10-20T04:16:50;7.40;98.30
12233;DHT22;6179;51.748;8.728;2022-10-20T04:22:50;7.40;98.30
12233;DHT22;6179;51.748;8.728;2022-10-20T04:28:51;7.60;98.30
12233;DHT22;6179;51.748;8.728;2022-10-20T04:34:52;7.40;98.30
12233;DHT22;6179;51.748;8.728;2022-10-20T04:40:54;7.80;98.30
12233;DHT22;6179;51.748;8.728;2022-10-20T04:46:54;7.70;98.30
12233;DHT22;6179;51.748;8.728;2022-10-20T04:52:57;7.80;98.30
12233;DHT22;6179;51.748;8.728;2022-10-20T04:58:58;7.80;98.30
12233;DHT22;6179;51.748;8.728;2022-10-20T05:04:58;7.80;98.30
12233;DHT22;6179;51.748;8.728;2022-10-20T05:10:59;7.70;98.30
12233;DHT22;6179;51.748;8.728;2022-10-20T05:17:00;8.10;98.30
12233;DHT22;6179;51.748;8.728;2022-10-20T05:23:01;7.90;98.30
12233;DHT22;6179;51.748;8.728;2022-10-20T05:29:04;7.80;98.30
12233;DHT22;6179;51.748;8.728;2022-10-20T05:35:05;7.80;98.30
12233;DHT22;6179;51.748;8.728;2022-10-20T05:41:15;7.70;98.30
12233;DHT22;6179;51.748;8.728;2022-10-20T05:47:15;8.20;98.30
12233;DHT22;6179;51.748;8.728;2022-10-20T05:53:16;8.40;98.30
12233;DHT22;6179;51.748;8.728;2022-10-20T05:59:17;8.50;98.30
12233;DHT22;6179;51.748;8.728;2022-10-20T06:05:17;8.40;98.30
12233;DHT22;6179;51.748;8.728;2022-10-20T06:11:19;8.50;98.30
12233;DHT22;6179;51.748;8.728;2022-10-20T06:17:20;8.70;98.30
12233;DHT22;6179;51.748;8.728;2022-10-20T06:23:20;8.70;98.30
12233;DHT22;6179;51.748;8.728;2022-10-20T06:29:21;8.70;98.30
12233;DHT22;6179;51.748;8.728;2022-10-20T06:35:21;8.70;98.30
12233;DHT22;6179;51.748;8.728;2022-10-20T06:41:23;8.60;98.30
12233;DHT22;6179;51.748;8.728;2022-10-20T06:47:23;8.70;98.30
12233;DHT22;6179;51.748;8.728;2022-10-20T06:53:25;9.00;98.30
12233;DHT22;6179;51.748;8.728;2022-10-20T06:59:26;9.20;98.30
12233;DHT22;6179;51.748;8.728;2022-10-20T07:05:26;9.40;98.30
12233;DHT22;6179;51.748;8.728;2022-10-20T07:11:28;9.60;98.30
12233;DHT22;6179;51.748;8.728;2022-10-20T07:17:29;9.70;98.30
12233;DHT22;6179;51.748;8.728;2022-10-20T07:23:31;9.90;98.30
12233;DHT22;6179;51.748;8.728;2022-10-20T07:29:32;10.10;98.30
12233;DHT22;6179;51.748;8.728;2022-10-20T07:35:34;10.10;98.30
12233;DHT22;6179;51.748;8.728;2022-10-20T07:41:36;10.20;98.30
12233;DHT22;6179;51.748;8.728;2022-10-20T07:47:38;10.40;97.90
12233;DHT22;6179;51.748;8.728;2022-10-20T07:53:39;10.50;97.70
12233;DHT22;6179;51.748;8.728;2022-10-20T07:59:40;10.60;97.70
12233;DHT22;6179;51.748;8.728;2022-10-20T08:05:40;10.70;97.90
12233;DHT22;6179;51.748;8.728;2022-10-20T08:11:41;10.90;98.00
12233;DHT22;6179;51.748;8.728;2022-10-20T08:17:41;11.10;97.30
12233;DHT22;6179;51.748;8.728;2022-10-20T08:23:44;11.30;97.30
12233;DHT22;6179;51.748;8.728;2022-10-20T08:29:45;11.50;96.50
12233;DHT22;6179;51.748;8.728;2022-10-20T08:35:46;11.70;96.60
12233;DHT22;6179;51.748;8.728;2022-10-20T08:41:49;11.90;95.30
12233;DHT22;6179;51.748;8.728;2022-10-20T08:47:52;11.60;95.80
12233;DHT22;6179;51.748;8.728;2022-10-20T08:53:55;11.70;96.60
12233;DHT22;6179;51.748;8.728;2022-10-20T09:00:20;12.00;94.70
12233;DHT22;6179;51.748;8.728;2022-10-20T09:06:22;12.20;94.90
12233;DHT22;6179;51.748;8.728;2022-10-20T09:12:23;12.20;95.10
12233;DHT22;6179;51.748;8.728;2022-10-20T09:18:24;12.40;94.40
12233;DHT22;6179;51.748;8.728;2022-10-20T09:24:27;12.40;93.60
12233;DHT22;6179;51.748;8.728;2022-10-20T09:36:33;12.40;93.60
12233;DHT22;6179;51.748;8.728;2022-10-20T09:42:36;12.50;94.50
12233;DHT22;6179;51.748;8.728;2022-10-20T09:48:45;12.80;93.60
12233;DHT22;6179;51.748;8.728;2022-10-20T09:54:48;13.10;91.70
12233;DHT22;6179;51.748;8.728;2022-10-20T10:01:13;13.00;92.00
12233;DHT22;6179;51.748;8.728;2022-10-20T10:13:24;13.00;93.00
12233;DHT22;6179;51.748;8.728;2022-10-20T10:19:32;13.00;93.30
12233;DHT22;6179;51.748;8.728;2022-10-20T10:25:33;13.10;92.60
12233;DHT22;6179;51.748;8.728;2022-10-20T10:31:33;13.50;91.90
12233;DHT22;6179;51.748;8.728;2022-10-20T10:37:36;13.40;92.80
12233;DHT22;6179;51.748;8.728;2022-10-20T10:43:45;13.60;91.90
12233;DHT22;6179;51.748;8.728;2022-10-20T11:09:12;13.70;91.60
12233;DHT22;6179;51.748;8.728;2022-10-20T11:28:11;13.70;92.30
12233;DHT22;6179;51.748;8.728;2022-10-20T11:40:29;14.10;92.50
12233;DHT22;6179;51.748;8.728;2022-10-20T11:59:11;14.70;90.50
12233;DHT22;6179;51.748;8.728;2022-10-20T12:11:36;14.50;92.30
12233;DHT22;6179;51.748;8.728;2022-10-20T12:17:41;14.60;91.80
12233;DHT22;6179;51.748;8.728;2022-10-20T12:29:50;14.20;92.90
12233;DHT22;6179;51.748;8.728;2022-10-20T12:36:12;14.30;91.50
12233;DHT22;6179;51.748;8.728;2022-10-20T12:48:26;13.50;96.10
12233;DHT22;6179;51.748;8.728;2022-10-20T13:12:38;13.60;96.90
12233;DHT22;6179;51.748;8.728;2022-10-20T13:18:44;13.80;96.50
12233;DHT22;6179;51.748;8.728;2022-10-20T13:24:46;13.60;95.70
12233;DHT22;6179;51.748;8.728;2022-10-20T13:38:05;13.50;96.30
12233;DHT22;6179;51.748;8.728;2022-10-20T13:43:48;13.60;95.90
12233;DHT22;6179;51.748;8.728;2022-10-20T14:07:59;13.80;95.60
12233;DHT22;6179;51.748;8.728;2022-10-20T14:14:01;13.30;97.70
12233;DHT22;6179;51.748;8.728;2022-10-20T14:20:28;13.50;97.10
12233;DHT22;6179;51.748;8.728;2022-10-20T14:26:29;13.40;97.00
12233;DHT22;6179;51.748;8.728;2022-10-20T14:32:38;13.40;97.50
12233;DHT22;6179;51.748;8.728;2022-10-20T14:38:39;13.60;97.20
12233;DHT22;6179;51.748;8.728;2022-10-20T14:44:45;13.50;98.30
12233;DHT22;6179;51.748;8.728;2022-10-20T14:50:46;13.40;98.30
12233;DHT22;6179;51.748;8.728;2022-10-20T15:02:58;12.90;98.30
12233;DHT22;6179;51.748;8.728;2022-10-20T15:09:02;12.90;98.30
12233;DHT22;6179;51.748;8.728;2022-10-20T15:21:19;12.80;98.30
12233;DHT22;6179;51.748;8.728;2022-10-20T15:27:20;12.80;98.30
12233;DHT22;6179;51.748;8.728;2022-10-20T15:33:21;12.90;98.30
12233;DHT22;6179;51.748;8.728;2022-10-20T15:39:21;12.90;98.30
12233;DHT22;6179;51.748;8.728;2022-10-20T15:45:24;12.80;98.30
12233;DHT22;6179;51.748;8.728;2022-10-20T15:51:33;13.00;98.30
12233;DHT22;6179;51.748;8.728;2022-10-20T15:57:33;12.70;98.30
12233;DHT22;6179;51.748;8.728;2022-10-20T16:03:34;12.60;98.30
12233;DHT22;6179;51.748;8.728;2022-10-20T16:09:40;12.50;98.30
12233;DHT22;6179;51.748;8.728;2022-10-20T16:15:40;12.50;98.30
12233;DHT22;6179;51.748;8.728;2022-10-20T16:21:41;12.60;98.30
12233;DHT22;6179;51.748;8.728;2022-10-20T16:27:42;12.50;98.30
12233;DHT22;6179;51.748;8.728;2022-10-20T16:33:43;12.40;98.30
12233;DHT22;6179;51.748;8.728;2022-10-20T16:39:44;12.60;98.30
12233;DHT22;6179;51.748;8.728;2022-10-20T16:45:44;12.50;98.30
12233;DHT22;6179;51.748;8.728;2022-10-20T16:51:45;12.50;98.30
12233;DHT22;6179;51.748;8.728;2022-10-20T16:57:46;12.70;98.30
12233;DHT22;6179;51.748;8.728;2022-10-20T17:03:49;12.60;98.30
12233;DHT22;6179;51.748;8.728;2022-10-20T17:09:50;12.60;98.30
12233;DHT22;6179;51.748;8.728;2022-10-20T17:15:51;13.00;98.30
12233;DHT22;6179;51.748;8.728;2022-10-20T17:21:52;13.00;98.30
12233;DHT22;6179;51.748;8.728;2022-10-20T17:27:53;12.90;98.30
12233;DHT22;6179;51.748;8.728;2022-10-20T17:33:58;12.60;98.30
12233;DHT22;6179;51.748;8.728;2022-10-20T17:39:59;12.80;98.30
12233;DHT22;6179;51.748;8.728;2022-10-20T17:46:04;12.80;98.30
12233;DHT22;6179;51.748;8.728;2022-10-20T17:52:05;12.70;98.30
12233;DHT22;6179;51.748;8.728;2022-10-20T17:58:06;12.70;98.30
12233;DHT22;6179;51.748;8.728;2022-10-20T18:04:09;12.80;98.30
12233;DHT22;6179;51.748;8.728;2022-10-20T18:10:10;12.50;98.30
12233;DHT22;6179;51.748;8.728;2022-10-20T18:16:16;12.50;98.30
12233;DHT22;6179;51.748;8.728;2022-10-20T18:22:19;12.50;98.30
12233;DHT22;6179;51.748;8.728;2022-10-20T18:28:20;12.50;98.30
12233;DHT22;6179;51.748;8.728;2022-10-20T18:34:22;12.40;98.30
12233;DHT22;6179;51.748;8.728;2022-10-20T18:40:23;12.50;98.30
12233;DHT22;6179;51.748;8.728;2022-10-20T18:46:28;12.50;98.30
12233;DHT22;6179;51.748;8.728;2022-10-20T18:52:29;12.80;98.30
12233;DHT22;6179;51.748;8.728;2022-10-20T18:58:33;13.00;98.30
12233;DHT22;6179;51.748;8.728;2022-10-20T19:04:34;13.30;98.30
12233;DHT22;6179;51.748;8.728;2022-10-20T19:10:35;13.10;98.30
12233;DHT22;6179;51.748;8.728;2022-10-20T19:16:37;12.90;98.30
12233;DHT22;6179;51.748;8.728;2022-10-20T19:22:38;12.60;98.30
12233;DHT22;6179;51.748;8.728;2022-10-20T19:28:50;12.80;98.30
12233;DHT22;6179;51.748;8.728;2022-10-20T19:34:51;12.80;98.30
12233;DHT22;6179;51.748;8.728;2022-10-20T19:40:52;12.70;98.30
12233;DHT22;6179;51.748;8.728;2022-10-20T19:46:53;13.00;98.30
12233;DHT22;6179;51.748;8.728;2022-10-20T19:52:54;13.10;98.30
12233;DHT22;6179;51.748;8.728;2022-10-20T19:58:55;13.00;98.30
12233;DHT22;6179;51.748;8.728;2022-10-20T20:04:55;13.00;98.30
12233;DHT22;6179;51.748;8.728;2022-10-20T20:10:57;13.00;98.30
12233;DHT22;6179;51.748;8.728;2022-10-20T20:16:57;12.80;98.30
12233;DHT22;6179;51.748;8.728;2022-10-20T20:22:58;13.00;98.30
12233;DHT22;6179;51.748;8.728;2022-10-20T20:28:59;12.80;98.30
12233;DHT22;6179;51.748;8.728;2022-10-20T20:35:00;12.70;98.30
12233;DHT22;6179;51.748;8.728;2022-10-20T20:41:03;12.80;98.30
12233;DHT22;6179;51.748;8.728;2022-10-20T20:47:04;12.80;98.30
12233;DHT22;6179;51.748;8.728;2022-10-20T20:53:04;12.70;98.30
12233;DHT22;6179;51.748;8.728;2022-10-20T20:59:05;12.50;98.30
12233;DHT22;6179;51.748;8.728;2022-10-20T21:05:06;12.40;98.30
12233;DHT22;6179;51.748;8.728;2022-10-20T21:11:09;12.60;98.30
12233;DHT22;6179;51.748;8.728;2022-10-20T21:17:09;13.00;98.30
12233;DHT22;6179;51.748;8.728;2022-10-20T21:23:10;13.20;98.30
12233;DHT22;6179;51.748;8.728;2022-10-20T21:29:11;13.20;98.30
12233;DHT22;6179;51.748;8.728;2022-10-20T21:35:12;13.10;98.30
12233;DHT22;6179;51.748;8.728;2022-10-20T21:41:15;13.00;98.30
12233;DHT22;6179;51.748;8.728;2022-10-20T21:47:16;12.90;98.30
12233;DHT22;6179;51.748;8.728;2022-10-20T21:53:17;13.00;98.30
12233;DHT22;6179;51.748;8.728;2022-10-20T21:59:20;13.10;98.30
12233;DHT22;6179;51.748;8.728;2022-10-20T22:05:21;13.10;98.30
12233;DHT22;6179;51.748;8.728;2022-10-20T22:11:27;13.40;98.30
12233;DHT22;6179;51.748;8.728;2022-10-20T22:17:28;13.40;98.30
12233;DHT22;6179;51.748;8.728;2022-10-20T22:23:29;13.10;98.30
12233;DHT22;6179;51.748;8.728;2022-10-20T22:29:30;13.30;98.30
12233;DHT22;6179;51.748;8.728;2022-10-20T22:35:31;13.20;98.30
12233;DHT22;6179;51.748;8.728;2022-10-20T22:41:32;13.40;98.30
12233;DHT22;6179;51.748;8.728;2022-10-20T22:47:33;13.50;98.30
12233;DHT22;6179;51.748;8.728;2022-10-20T22:53:34;13.70;98.30
12233;DHT22;6179;51.748;8.728;2022-10-20T22:59:35;13.50;98.30
12233;DHT22;6179;51.748;8.728;2022-10-20T23:05:36;13.70;98.30
12233;DHT22;6179;51.748;8.728;2022-10-20T23:11:37;13.80;98.30
12233;DHT22;6179;51.748;8.728;2022-10-20T23:17:37;13.50;98.30
12233;DHT22;6179;51.748;8.728;2022-10-20T23:23:38;13.40;98.30
12233;DHT22;6179;51.748;8.728;2022-10-20T23:29:39;13.30;98.30
12233;DHT22;6179;51.748;8.728;2022-10-20T23:35:40;13.30;98.30
12233;DHT22;6179;51.748;8.728;2022-10-20T23:41:41;13.40;98.30
12233;DHT22;6179;51.748;8.728;2022-10-20T23:47:42;13.60;98.30
12233;DHT22;6179;51.748;8.728;2022-10-20T23:53:43;13.70;98.30
12233;DHT22;6179;51.748;8.728;2022-10-20T23:59:44;13.90;98.30
